sensor_id;sensor_type;location;lat;lon;timestamp;P1;P2;P0
73825;PMS5003;64145;55.060;73.168;2023-01-13T00:01:16;0.00;0.00;0.00
73825;PMS5003;64145;55.060;73.168;2023-01-13T00:03:43;0.00;0.00;0.00
73825;PMS5003;64145;55.060;73.168;2023-01-13T00:06:14;0.00;0.00;0.00
73825;PMS5003;64145;55.060;73.168;2023-01-13T00:08:40;0.00;0.00;0.00
73825;PMS5003;64145;55.060;73.168;2023-01-13T00:11:05;0.00;0.00;0.00
73825;PMS5003;64145;55.060;73.168;2023-01-13T00:13:41;0.00;0.00;0.00
73825;PMS5003;64145;55.060;73.168;2023-01-13T00:16:14;0.00;0.00;0.00
73825;PMS5003;64145;55.060;73.168;2023-01-13T00:18:50;0.00;0.00;0.00
73825;PMS5003;64145;55.060;73.168;2023-01-13T00:21:19;0.00;0.00;0.00
73825;PMS5003;64145;55.060;73.168;2023-01-13T00:23:46;0.00;0.00;0.00
73825;PMS5003;64145;55.060;73.168;2023-01-13T00:26:22;0.00;0.00;0.00
73825;PMS5003;64145;55.060;73.168;2023-01-13T00:28:57;0.00;0.00;0.00
73825;PMS5003;64145;55.060;73.168;2023-01-13T00:31:33;2.00;0.75;0.00
73825;PMS5003;64145;55.060;73.168;2023-01-13T00:33:59;3.00;2.00;0.00
73825;PMS5003;64145;55.060;73.168;2023-01-13T00:36:26;6.00;4.00;0.00
73825;PMS5003;64145;55.060;73.168;2023-01-13T00:38:51;9.33;8.00;3.00
73825;PMS5003;64145;55.060;73.168;2023-01-13T00:41:17;14.00;12.00;4.00
73825;PMS5003;64145;55.060;73.168;2023-01-13T00:43:43;17.50;15.00;4.25
73825;PMS5003;64145;55.060;73.168;2023-01-13T00:46:10;10.00;10.00;2.00
73825;PMS5003;64145;55.060;73.168;2023-01-13T00:48:36;13.25;12.00;4.00
73825;PMS5003;64145;55.060;73.168;2023-01-13T00:51:03;16.00;14.00;5.00
73825;PMS5003;64145;55.060;73.168;2023-01-13T00:53:34;12.50;12.00;5.50
73825;PMS5003;64145;55.060;73.168;2023-01-13T00:58:52;4.25;4.00;1.00
73825;PMS5003;64145;55.060;73.168;2023-01-13T01:01:19;3.33;2.00;0.00
73825;PMS5003;64145;55.060;73.168;2023-01-13T01:03:48;0.00;0.00;0.00
73825;PMS5003;64145;55.060;73.168;2023-01-13T01:06:15;1.00;1.00;0.00
73825;PMS5003;64145;55.060;73.168;2023-01-13T01:08:41;2.00;2.00;0.00
73825;PMS5003;64145;55.060;73.168;2023-01-13T01:11:18;0.00;0.00;0.00
73825;PMS5003;64145;55.060;73.168;2023-01-13T01:13:45;0.00;0.00;0.00
73825;PMS5003;64145;55.060;73.168;2023-01-13T01:16:22;2.00;2.00;0.00
73825;PMS5003;64145;55.060;73.168;2023-01-13T01:18:49;4.00;2.00;0.00
73825;PMS5003;64145;55.060;73.168;2023-01-13T01:21:17;1.00;0.00;0.00
73825;PMS5003;64145;55.060;73.168;2023-01-13T01:23:43;0.25;0.00;0.00
73825;PMS5003;64145;55.060;73.168;2023-01-13T01:26:15;2.00;1.00;0.00
73825;PMS5003;64145;55.060;73.168;2023-01-13T01:28:45;3.00;2.00;0.00
73825;PMS5003;64145;55.060;73.168;2023-01-13T01:31:12;2.00;2.00;0.00
73825;PMS5003;64145;55.060;73.168;2023-01-13T01:33:41;1.00;1.00;0.00
73825;PMS5003;64145;55.060;73.168;2023-01-13T01:36:09;3.00;2.50;0.00
73825;PMS5003;64145;55.060;73.168;2023-01-13T01:38:35;2.50;2.00;0.00
73825;PMS5003;64145;55.060;73.168;2023-01-13T01:41:01;12.75;11.75;5.75
73825;PMS5003;64145;55.060;73.168;2023-01-13T01:48:55;22.33;16.67;7.67
73825;PMS5003;64145;55.060;73.168;2023-01-13T01:51:28;15.25;13.00;4.00
73825;PMS5003;64145;55.060;73.168;2023-01-13T01:53:56;17.00;13.75;5.00
73825;PMS5003;64145;55.060;73.168;2023-01-13T01:56:22;26.75;20.75;8.25
73825;PMS5003;64145;55.060;73.168;2023-01-13T01:58:48;31.33;24.33;12.00
73825;PMS5003;64145;55.060;73.168;2023-01-13T02:01:25;35.50;27.00;15.00
73825;PMS5003;64145;55.060;73.168;2023-01-13T02:04:04;31.00;24.75;14.00
73825;PMS5003;64145;55.060;73.168;2023-01-13T02:06:32;22.00;19.75;12.00
73825;PMS5003;64145;55.060;73.168;2023-01-13T02:09:07;13.00;12.00;6.25
73825;PMS5003;64145;55.060;73.168;2023-01-13T02:11:34;8.00;5.75;2.00
73825;PMS5003;64145;55.060;73.168;2023-01-13T02:14:24;2.00;2.00;0.00
73825;PMS5003;64145;55.060;73.168;2023-01-13T02:16:53;11.25;9.75;5.00
73825;PMS5003;64145;55.060;73.168;2023-01-13T02:24:58;35.50;28.00;16.75
73825;PMS5003;64145;55.060;73.168;2023-01-13T02:35:35;5.75;5.75;1.00
73825;PMS5003;64145;55.060;73.168;2023-01-13T02:38:00;1.00;1.00;1.00
73825;PMS5003;64145;55.060;73.168;2023-01-13T02:40:55;2.00;0.75;0.00
73825;PMS5003;64145;55.060;73.168;2023-01-13T02:43:31;1.25;1.00;0.00
73825;PMS5003;64145;55.060;73.168;2023-01-13T02:46:22;1.00;0.00;0.00
73825;PMS5003;64145;55.060;73.168;2023-01-13T02:48:51;0.50;0.00;0.00
73825;PMS5003;64145;55.060;73.168;2023-01-13T02:51:19;2.00;1.00;0.00
73825;PMS5003;64145;55.060;73.168;2023-01-13T02:53:58;2.00;2.00;0.00
73825;PMS5003;64145;55.060;73.168;2023-01-13T02:56:25;4.25;3.00;0.25
73825;PMS5003;64145;55.060;73.168;2023-01-13T02:58:51;13.75;12.00;8.25
73825;PMS5003;64145;55.060;73.168;2023-01-13T03:01:18;6.25;6.25;3.50
73825;PMS5003;64145;55.060;73.168;2023-01-13T03:03:53;7.00;6.50;4.00
73825;PMS5003;64145;55.060;73.168;2023-01-13T03:09:03;0.00;0.00;0.00
73825;PMS5003;64145;55.060;73.168;2023-01-13T03:11:51;2.00;2.00;0.00
73825;PMS5003;64145;55.060;73.168;2023-01-13T03:20:53;1.00;0.00;0.00
73825;PMS5003;64145;55.060;73.168;2023-01-13T03:23:23;0.00;0.00;0.00
73825;PMS5003;64145;55.060;73.168;2023-01-13T03:28:48;0.00;0.00;0.00
73825;PMS5003;64145;55.060;73.168;2023-01-13T03:31:23;2.00;0.25;0.00
73825;PMS5003;64145;55.060;73.168;2023-01-13T03:33:59;1.00;1.00;0.00
73825;PMS5003;64145;55.060;73.168;2023-01-13T03:36:36;1.00;0.00;0.00
73825;PMS5003;64145;55.060;73.168;2023-01-13T03:39:09;0.00;0.00;0.00
73825;PMS5003;64145;55.060;73.168;2023-01-13T03:49:43;1.00;0.00;0.00
73825;PMS5003;64145;55.060;73.168;2023-01-13T03:52:21;0.00;0.00;0.00
73825;PMS5003;64145;55.060;73.168;2023-01-13T03:54:56;0.00;0.00;0.00
73825;PMS5003;64145;55.060;73.168;2023-01-13T03:57:25;0.00;0.00;0.00
73825;PMS5003;64145;55.060;73.168;2023-01-13T03:59:53;0.00;0.00;0.00
73825;PMS5003;64145;55.060;73.168;2023-01-13T04:02:49;0.00;0.00;0.00
73825;PMS5003;64145;55.060;73.168;2023-01-13T04:05:16;0.00;0.00;0.00
73825;PMS5003;64145;55.060;73.168;2023-01-13T04:10:08;0.00;0.00;0.00
73825;PMS5003;64145;55.060;73.168;2023-01-13T04:12:41;0.50;0.00;0.00
73825;PMS5003;64145;55.060;73.168;2023-01-13T04:15:25;0.00;0.00;0.00
73825;PMS5003;64145;55.060;73.168;2023-01-13T04:17:52;0.00;0.00;0.00
73825;PMS5003;64145;55.060;73.168;2023-01-13T04:20:17;0.00;0.00;0.00
73825;PMS5003;64145;55.060;73.168;2023-01-13T04:22:48;0.00;0.00;0.00
73825;PMS5003;64145;55.060;73.168;2023-01-13T04:25:14;0.00;0.00;0.00
73825;PMS5003;64145;55.060;73.168;2023-01-13T04:27:39;0.00;0.00;0.00
73825;PMS5003;64145;55.060;73.168;2023-01-13T04:30:05;0.00;0.00;0.00
73825;PMS5003;64145;55.060;73.168;2023-01-13T04:32:40;0.00;0.00;0.00
73825;PMS5003;64145;55.060;73.168;2023-01-13T04:35:05;0.00;0.00;0.00
73825;PMS5003;64145;55.060;73.168;2023-01-13T04:37:32;0.00;0.00;0.00
73825;PMS5003;64145;55.060;73.168;2023-01-13T04:39:58;0.67;0.67;0.00
73825;PMS5003;64145;55.060;73.168;2023-01-13T04:42:33;0.00;0.00;0.00
73825;PMS5003;64145;55.060;73.168;2023-01-13T04:45:04;2.00;1.00;0.00
73825;PMS5003;64145;55.060;73.168;2023-01-13T04:47:29;0.00;0.00;0.00
73825;PMS5003;64145;55.060;73.168;2023-01-13T04:49:55;1.67;1.00;0.00
73825;PMS5003;64145;55.060;73.168;2023-01-13T04:52:20;1.00;1.00;0.00
73825;PMS5003;64145;55.060;73.168;2023-01-13T04:54:56;1.00;1.00;0.00
73825;PMS5003;64145;55.060;73.168;2023-01-13T04:57:22;2.00;1.33;0.00
73825;PMS5003;64145;55.060;73.168;2023-01-13T04:59:48;2.00;1.00;0.00
73825;PMS5003;64145;55.060;73.168;2023-01-13T05:02:23;1.50;1.50;0.00
73825;PMS5003;64145;55.060;73.168;2023-01-13T05:04:49;0.00;0.00;0.00
73825;PMS5003;64145;55.060;73.168;2023-01-13T05:07:15;1.33;0.00;0.00
73825;PMS5003;64145;55.060;73.168;2023-01-13T05:09:40;0.00;0.00;0.00
73825;PMS5003;64145;55.060;73.168;2023-01-13T05:12:06;0.00;0.00;0.00
73825;PMS5003;64145;55.060;73.168;2023-01-13T05:14:56;0.00;0.00;0.00
73825;PMS5003;64145;55.060;73.168;2023-01-13T05:17:46;1.00;0.00;0.00
73825;PMS5003;64145;55.060;73.168;2023-01-13T05:20:11;0.67;0.67;0.00
73825;PMS5003;64145;55.060;73.168;2023-01-13T05:22:39;1.75;1.75;0.00
73825;PMS5003;64145;55.060;73.168;2023-01-13T05:25:23;1.00;1.00;0.00
73825;PMS5003;64145;55.060;73.168;2023-01-13T05:27:50;0.00;0.00;0.00
73825;PMS5003;64145;55.060;73.168;2023-01-13T05:30:16;0.00;0.00;0.00
73825;PMS5003;64145;55.060;73.168;2023-01-13T05:32:42;1.67;1.00;0.00
73825;PMS5003;64145;55.060;73.168;2023-01-13T05:35:08;0.00;0.00;0.00
73825;PMS5003;64145;55.060;73.168;2023-01-13T05:37:33;0.00;0.00;0.00
73825;PMS5003;64145;55.060;73.168;2023-01-13T05:40:09;0.00;0.00;0.00
73825;PMS5003;64145;55.060;73.168;2023-01-13T05:43:27;0.25;0.25;0.00
73825;PMS5003;64145;55.060;73.168;2023-01-13T05:45:46;1.00;1.00;0.00
73825;PMS5003;64145;55.060;73.168;2023-01-13T05:48:12;1.00;1.00;0.00
73825;PMS5003;64145;55.060;73.168;2023-01-13T05:50:38;0.00;0.00;0.00
73825;PMS5003;64145;55.060;73.168;2023-01-13T05:53:04;0.00;0.00;0.00
73825;PMS5003;64145;55.060;73.168;2023-01-13T05:55:34;0.50;0.00;0.00
73825;PMS5003;64145;55.060;73.168;2023-01-13T05:58:02;1.25;1.00;0.00
73825;PMS5003;64145;55.060;73.168;2023-01-13T06:00:33;1.00;1.00;0.00
73825;PMS5003;64145;55.060;73.168;2023-01-13T06:03:03;1.00;0.00;0.00
73825;PMS5003;64145;55.060;73.168;2023-01-13T06:05:35;3.00;1.00;0.00
73825;PMS5003;64145;55.060;73.168;2023-01-13T06:08:01;2.00;0.50;0.00
73825;PMS5003;64145;55.060;73.168;2023-01-13T06:10:27;2.00;1.00;0.00
73825;PMS5003;64145;55.060;73.168;2023-01-13T06:12:53;3.00;2.00;0.00
73825;PMS5003;64145;55.060;73.168;2023-01-13T06:15:28;2.00;1.00;0.00
73825;PMS5003;64145;55.060;73.168;2023-01-13T06:18:03;2.00;1.00;0.00
73825;PMS5003;64145;55.060;73.168;2023-01-13T06:20:29;16.00;15.00;11.00
73825;PMS5003;64145;55.060;73.168;2023-01-13T06:22:55;4.00;3.67;2.00
73825;PMS5003;64145;55.060;73.168;2023-01-13T06:25:22;2.00;2.00;0.00
73825;PMS5003;64145;55.060;73.168;2023-01-13T06:27:50;1.00;1.00;0.00
73825;PMS5003;64145;55.060;73.168;2023-01-13T06:30:16;2.00;1.00;0.00
73825;PMS5003;64145;55.060;73.168;2023-01-13T06:32:51;1.00;1.00;0.00
73825;PMS5003;64145;55.060;73.168;2023-01-13T06:35:24;0.00;0.00;0.00
73825;PMS5003;64145;55.060;73.168;2023-01-13T06:37:56;0.50;0.00;0.00
73825;PMS5003;64145;55.060;73.168;2023-01-13T06:40:23;0.00;0.00;0.00
73825;PMS5003;64145;55.060;73.168;2023-01-13T06:42:50;1.00;1.00;0.00
73825;PMS5003;64145;55.060;73.168;2023-01-13T06:45:34;0.00;0.00;0.00
73825;PMS5003;64145;55.060;73.168;2023-01-13T06:48:00;2.00;2.00;0.00
73825;PMS5003;64145;55.060;73.168;2023-01-13T06:50:26;2.00;2.00;0.00
73825;PMS5003;64145;55.060;73.168;2023-01-13T06:52:52;0.25;0.25;0.00
73825;PMS5003;64145;55.060;73.168;2023-01-13T06:55:17;0.00;0.00;0.00
73825;PMS5003;64145;55.060;73.168;2023-01-13T06:57:50;0.00;0.00;0.00
73825;PMS5003;64145;55.060;73.168;2023-01-13T07:00:16;0.00;0.00;0.00
73825;PMS5003;64145;55.060;73.168;2023-01-13T07:02:41;1.00;0.00;0.00
73825;PMS5003;64145;55.060;73.168;2023-01-13T07:05:16;0.75;0.00;0.00
73825;PMS5003;64145;55.060;73.168;2023-01-13T07:07:42;0.00;0.00;0.00
73825;PMS5003;64145;55.060;73.168;2023-01-13T07:10:13;0.00;0.00;0.00
73825;PMS5003;64145;55.060;73.168;2023-01-13T07:12:51;1.00;1.00;0.00
73825;PMS5003;64145;55.060;73.168;2023-01-13T07:15:35;1.00;1.00;0.00
73825;PMS5003;64145;55.060;73.168;2023-01-13T07:18:05;0.00;0.00;0.00
73825;PMS5003;64145;55.060;73.168;2023-01-13T07:20:30;0.00;0.00;0.00
73825;PMS5003;64145;55.060;73.168;2023-01-13T07:22:56;0.00;0.00;0.00
73825;PMS5003;64145;55.060;73.168;2023-01-13T07:25:22;1.67;1.67;0.00
73825;PMS5003;64145;55.060;73.168;2023-01-13T07:27:57;0.00;0.00;0.00
73825;PMS5003;64145;55.060;73.168;2023-01-13T07:30:23;0.00;0.00;0.00
73825;PMS5003;64145;55.060;73.168;2023-01-13T07:32:48;0.00;0.00;0.00
73825;PMS5003;64145;55.060;73.168;2023-01-13T07:35:14;0.00;0.00;0.00
73825;PMS5003;64145;55.060;73.168;2023-01-13T07:37:39;1.00;1.00;0.00
73825;PMS5003;64145;55.060;73.168;2023-01-13T07:40:06;1.75;1.75;0.00
73825;PMS5003;64145;55.060;73.168;2023-01-13T07:42:32;1.00;1.00;0.00
73825;PMS5003;64145;55.060;73.168;2023-01-13T07:45:21;1.00;0.00;0.00
73825;PMS5003;64145;55.060;73.168;2023-01-13T07:47:49;1.00;0.00;0.00
73825;PMS5003;64145;55.060;73.168;2023-01-13T07:50:15;0.00;0.00;0.00
73825;PMS5003;64145;55.060;73.168;2023-01-13T07:52:40;1.00;1.00;0.00
73825;PMS5003;64145;55.060;73.168;2023-01-13T07:55:06;2.00;1.00;0.00
73825;PMS5003;64145;55.060;73.168;2023-01-13T07:57:32;0.00;0.00;0.00
73825;PMS5003;64145;55.060;73.168;2023-01-13T08:00:03;0.00;0.00;0.00
73825;PMS5003;64145;55.060;73.168;2023-01-13T08:02:38;0.50;0.00;0.00
73825;PMS5003;64145;55.060;73.168;2023-01-13T08:05:03;1.00;0.00;0.00
73825;PMS5003;64145;55.060;73.168;2023-01-13T08:07:29;1.00;1.00;0.00
73825;PMS5003;64145;55.060;73.168;2023-01-13T08:09:55;2.00;0.00;0.00
73825;PMS5003;64145;55.060;73.168;2023-01-13T08:12:25;3.00;1.00;0.00
73825;PMS5003;64145;55.060;73.168;2023-01-13T08:15:10;0.75;0.75;0.00
73825;PMS5003;64145;55.060;73.168;2023-01-13T08:17:36;1.00;0.00;0.00
73825;PMS5003;64145;55.060;73.168;2023-01-13T08:20:02;0.67;0.67;0.00
73825;PMS5003;64145;55.060;73.168;2023-01-13T08:22:28;1.00;1.00;0.00
73825;PMS5003;64145;55.060;73.168;2023-01-13T08:24:55;1.50;0.75;0.00
73825;PMS5003;64145;55.060;73.168;2023-01-13T08:27:31;1.00;1.00;0.00
73825;PMS5003;64145;55.060;73.168;2023-01-13T08:29:57;1.00;1.00;0.00
73825;PMS5003;64145;55.060;73.168;2023-01-13T08:32:27;2.00;2.00;0.00
73825;PMS5003;64145;55.060;73.168;2023-01-13T08:34:53;1.00;1.00;0.00
73825;PMS5003;64145;55.060;73.168;2023-01-13T08:37:18;2.00;2.00;0.00
73825;PMS5003;64145;55.060;73.168;2023-01-13T08:39:49;1.00;1.00;0.00
73825;PMS5003;64145;55.060;73.168;2023-01-13T08:42:15;2.00;2.00;0.00
73825;PMS5003;64145;55.060;73.168;2023-01-13T08:44:40;1.00;1.00;0.00
73825;PMS5003;64145;55.060;73.168;2023-01-13T08:47:06;1.00;0.00;0.00
73825;PMS5003;64145;55.060;73.168;2023-01-13T08:49:33;0.00;0.00;0.00
73825;PMS5003;64145;55.060;73.168;2023-01-13T08:52:04;0.00;0.00;0.00
73825;PMS5003;64145;55.060;73.168;2023-01-13T08:54:39;0.00;0.00;0.00
73825;PMS5003;64145;55.060;73.168;2023-01-13T08:57:15;0.00;0.00;0.00
73825;PMS5003;64145;55.060;73.168;2023-01-13T08:59:43;0.00;0.00;0.00
73825;PMS5003;64145;55.060;73.168;2023-01-13T09:02:17;1.75;1.50;0.00
73825;PMS5003;64145;55.060;73.168;2023-01-13T09:04:47;1.00;1.00;0.00
73825;PMS5003;64145;55.060;73.168;2023-01-13T09:07:12;1.00;1.00;0.00
73825;PMS5003;64145;55.060;73.168;2023-01-13T09:09:38;0.00;0.00;0.00
73825;PMS5003;64145;55.060;73.168;2023-01-13T09:12:04;3.00;1.33;0.00
73825;PMS5003;64145;55.060;73.168;2023-01-13T09:14:48;2.00;2.00;0.00
73825;PMS5003;64145;55.060;73.168;2023-01-13T09:17:13;1.00;1.00;0.00
73825;PMS5003;64145;55.060;73.168;2023-01-13T09:19:39;2.00;1.00;0.00
73825;PMS5003;64145;55.060;73.168;2023-01-13T09:22:14;2.25;1.75;0.00
73825;PMS5003;64145;55.060;73.168;2023-01-13T09:24:40;2.25;2.00;0.00
73825;PMS5003;64145;55.060;73.168;2023-01-13T09:27:06;2.00;2.00;0.00
73825;PMS5003;64145;55.060;73.168;2023-01-13T09:29:31;2.00;2.00;0.00
73825;PMS5003;64145;55.060;73.168;2023-01-13T09:31:57;1.67;1.00;0.00
73825;PMS5003;64145;55.060;73.168;2023-01-13T09:34:23;2.00;2.00;0.00
73825;PMS5003;64145;55.060;73.168;2023-01-13T09:37:17;2.00;2.00;0.00
73825;PMS5003;64145;55.060;73.168;2023-01-13T09:39:43;2.00;2.00;0.00
73825;PMS5003;64145;55.060;73.168;2023-01-13T09:45:24;2.25;2.00;0.00
73825;PMS5003;64145;55.060;73.168;2023-01-13T09:48:11;3.00;2.75;0.00
73825;PMS5003;64145;55.060;73.168;2023-01-13T09:51:02;2.00;2.00;0.00
73825;PMS5003;64145;55.060;73.168;2023-01-13T09:53:36;2.00;2.00;0.00
73825;PMS5003;64145;55.060;73.168;2023-01-13T09:56:03;3.50;3.00;0.00
73825;PMS5003;64145;55.060;73.168;2023-01-13T09:58:38;3.00;3.00;0.00
73825;PMS5003;64145;55.060;73.168;2023-01-13T10:04:03;3.00;2.50;0.00
73825;PMS5003;64145;55.060;73.168;2023-01-13T10:06:34;2.50;2.00;0.00
73825;PMS5003;64145;55.060;73.168;2023-01-13T10:09:29;5.00;4.00;2.00
73825;PMS5003;64145;55.060;73.168;2023-01-13T10:11:58;3.00;3.00;1.00
73825;PMS5003;64145;55.060;73.168;2023-01-13T10:14:53;4.00;4.00;2.00
73825;PMS5003;64145;55.060;73.168;2023-01-13T10:17:39;3.00;3.00;1.00
73825;PMS5003;64145;55.060;73.168;2023-01-13T10:20:28;4.00;4.00;1.00
73825;PMS5003;64145;55.060;73.168;2023-01-13T10:26:00;3.50;3.50;0.00
73825;PMS5003;64145;55.060;73.168;2023-01-13T10:28:31;4.00;3.00;1.00
73825;PMS5003;64145;55.060;73.168;2023-01-13T10:30:57;2.00;2.00;0.00
73825;PMS5003;64145;55.060;73.168;2023-01-13T10:33:24;4.00;4.00;0.00
73825;PMS5003;64145;55.060;73.168;2023-01-13T10:35:56;2.00;2.00;0.00
73825;PMS5003;64145;55.060;73.168;2023-01-13T10:43:36;4.00;4.00;2.00
73825;PMS5003;64145;55.060;73.168;2023-01-13T10:46:05;5.00;4.00;2.00
73825;PMS5003;64145;55.060;73.168;2023-01-13T10:48:42;5.50;5.00;2.00
73825;PMS5003;64145;55.060;73.168;2023-01-13T10:51:18;8.00;6.00;3.00
73825;PMS5003;64145;55.060;73.168;2023-01-13T10:53:54;8.00;4.75;3.00
73825;PMS5003;64145;55.060;73.168;2023-01-13T10:56:21;23.00;20.75;14.00
73825;PMS5003;64145;55.060;73.168;2023-01-13T11:02:01;12.00;11.00;4.00
73825;PMS5003;64145;55.060;73.168;2023-01-13T11:04:40;10.00;8.00;3.00
73825;PMS5003;64145;55.060;73.168;2023-01-13T11:16:00;6.00;5.00;3.00
73825;PMS5003;64145;55.060;73.168;2023-01-13T11:20:56;4.00;4.00;2.00
73825;PMS5003;64145;55.060;73.168;2023-01-13T11:26:04;4.00;4.00;2.00
73825;PMS5003;64145;55.060;73.168;2023-01-13T11:28:49;5.00;4.00;1.00
73825;PMS5003;64145;55.060;73.168;2023-01-13T11:31:21;6.00;4.00;2.00
73825;PMS5003;64145;55.060;73.168;2023-01-13T11:33:53;15.50;14.25;8.25
73825;PMS5003;64145;55.060;73.168;2023-01-13T11:36:22;20.75;17.50;10.25
73825;PMS5003;64145;55.060;73.168;2023-01-13T11:38:52;19.00;17.00;10.00
73825;PMS5003;64145;55.060;73.168;2023-01-13T11:46:39;18.00;16.25;7.75
73825;PMS5003;64145;55.060;73.168;2023-01-13T11:49:23;27.25;22.25;12.75
73825;PMS5003;64145;55.060;73.168;2023-01-13T11:52:01;24.50;21.00;11.50
73825;PMS5003;64145;55.060;73.168;2023-01-13T12:05:26;23.00;20.50;11.25
73825;PMS5003;64145;55.060;73.168;2023-01-13T12:16:19;29.00;22.25;13.50
73825;PMS5003;64145;55.060;73.168;2023-01-13T12:21:24;15.50;14.50;9.00
73825;PMS5003;64145;55.060;73.168;2023-01-13T12:26:33;18.75;16.75;9.25
73825;PMS5003;64145;55.060;73.168;2023-01-13T12:29:06;20.25;18.50;12.00
73825;PMS5003;64145;55.060;73.168;2023-01-13T12:31:36;20.00;17.00;11.00
73825;PMS5003;64145;55.060;73.168;2023-01-13T12:34:14;18.00;17.00;11.00
73825;PMS5003;64145;55.060;73.168;2023-01-13T12:47:34;30.50;25.00;15.50
73825;PMS5003;64145;55.060;73.168;2023-01-13T12:52:50;33.75;27.25;18.75
73825;PMS5003;64145;55.060;73.168;2023-01-13T12:55:22;32.00;25.25;17.25
73825;PMS5003;64145;55.060;73.168;2023-01-13T13:00:34;33.50;27.00;18.00
73825;PMS5003;64145;55.060;73.168;2023-01-13T13:08:16;27.33;22.33;15.00
73825;PMS5003;64145;55.060;73.168;2023-01-13T13:10:55;28.75;22.50;15.00
73825;PMS5003;64145;55.060;73.168;2023-01-13T13:13:42;41.00;31.50;20.50
73825;PMS5003;64145;55.060;73.168;2023-01-13T13:24:40;54.50;47.25;29.00
73825;PMS5003;64145;55.060;73.168;2023-01-13T13:30:13;40.50;31.25;20.25
73825;PMS5003;64145;55.060;73.168;2023-01-13T13:38:04;28.00;23.50;14.50
73825;PMS5003;64145;55.060;73.168;2023-01-13T13:40:52;27.00;23.00;15.00
73825;PMS5003;64145;55.060;73.168;2023-01-13T13:43:43;23.00;21.00;14.00
73825;PMS5003;64145;55.060;73.168;2023-01-13T13:46:28;20.25;19.50;13.00
73825;PMS5003;64145;55.060;73.168;2023-01-13T13:49:13;17.00;16.00;11.50
73825;PMS5003;64145;55.060;73.168;2023-01-13T13:51:46;15.50;13.75;9.00
73825;PMS5003;64145;55.060;73.168;2023-01-13T13:54:17;13.50;12.75;7.25
73825;PMS5003;64145;55.060;73.168;2023-01-13T13:56:44;14.00;13.00;7.50
73825;PMS5003;64145;55.060;73.168;2023-01-13T13:59:11;14.00;13.00;8.00
73825;PMS5003;64145;55.060;73.168;2023-01-13T14:01:39;12.00;12.00;6.00
73825;PMS5003;64145;55.060;73.168;2023-01-13T14:04:26;20.50;18.25;10.50
73825;PMS5003;64145;55.060;73.168;2023-01-13T14:06:55;24.25;21.50;13.00
73825;PMS5003;64145;55.060;73.168;2023-01-13T14:09:22;21.75;20.00;12.00
73825;PMS5003;64145;55.060;73.168;2023-01-13T14:12:00;20.75;20.00;12.00
73825;PMS5003;64145;55.060;73.168;2023-01-13T14:14:26;18.00;17.75;12.00
73825;PMS5003;64145;55.060;73.168;2023-01-13T14:16:51;19.50;17.25;12.00
73825;PMS5003;64145;55.060;73.168;2023-01-13T14:19:32;11.75;10.25;5.75
73825;PMS5003;64145;55.060;73.168;2023-01-13T14:22:11;9.75;8.50;5.50
73825;PMS5003;64145;55.060;73.168;2023-01-13T14:24:44;11.00;10.00;4.00
73825;PMS5003;64145;55.060;73.168;2023-01-13T14:27:13;12.75;10.25;4.50
73825;PMS5003;64145;55.060;73.168;2023-01-13T14:29:40;10.75;9.25;4.00
73825;PMS5003;64145;55.060;73.168;2023-01-13T14:32:19;9.75;8.00;4.00
73825;PMS5003;64145;55.060;73.168;2023-01-13T14:34:45;5.00;4.00;2.25
73825;PMS5003;64145;55.060;73.168;2023-01-13T14:39:55;4.00;4.00;2.00
73825;PMS5003;64145;55.060;73.168;2023-01-13T14:42:31;6.00;6.00;2.75
73825;PMS5003;64145;55.060;73.168;2023-01-13T14:45:19;5.00;4.00;2.00
73825;PMS5003;64145;55.060;73.168;2023-01-13T14:47:48;5.00;5.00;2.00
73825;PMS5003;64145;55.060;73.168;2023-01-13T14:50:18;4.00;4.00;2.00
73825;PMS5003;64145;55.060;73.168;2023-01-13T14:52:49;3.00;3.00;1.00
73825;PMS5003;64145;55.060;73.168;2023-01-13T14:55:28;4.00;3.00;1.25
73825;PMS5003;64145;55.060;73.168;2023-01-13T15:00:38;3.25;3.00;1.00
73825;PMS5003;64145;55.060;73.168;2023-01-13T15:03:05;6.00;5.33;2.00
73825;PMS5003;64145;55.060;73.168;2023-01-13T15:05:38;6.00;4.75;2.00
73825;PMS5003;64145;55.060;73.168;2023-01-13T15:10:48;4.00;3.00;1.00
73825;PMS5003;64145;55.060;73.168;2023-01-13T15:15:51;4.00;4.00;1.00
73825;PMS5003;64145;55.060;73.168;2023-01-13T15:18:18;4.00;3.00;1.00
73825;PMS5003;64145;55.060;73.168;2023-01-13T15:20:48;5.25;3.75;1.75
73825;PMS5003;64145;55.060;73.168;2023-01-13T15:23:15;5.25;4.00;1.00
73825;PMS5003;64145;55.060;73.168;2023-01-13T15:25:43;5.00;3.50;0.00
73825;PMS5003;64145;55.060;73.168;2023-01-13T15:28:18;4.50;3.25;0.00
73825;PMS5003;64145;55.060;73.168;2023-01-13T15:30:49;3.00;3.00;1.25
73825;PMS5003;64145;55.060;73.168;2023-01-13T15:33:20;4.00;4.00;2.00
73825;PMS5003;64145;55.060;73.168;2023-01-13T15:35:51;3.00;3.00;1.25
73825;PMS5003;64145;55.060;73.168;2023-01-13T15:38:18;4.50;4.00;1.75
73825;PMS5003;64145;55.060;73.168;2023-01-13T15:40:44;2.00;2.00;1.00
73825;PMS5003;64145;55.060;73.168;2023-01-13T15:43:14;3.75;3.50;0.00
73825;PMS5003;64145;55.060;73.168;2023-01-13T15:46:05;2.00;2.00;0.00
73825;PMS5003;64145;55.060;73.168;2023-01-13T15:49:03;2.00;2.00;0.00
73825;PMS5003;64145;55.060;73.168;2023-01-13T15:51:34;1.75;0.00;0.00
73825;PMS5003;64145;55.060;73.168;2023-01-13T15:54:00;2.00;1.00;0.00
73825;PMS5003;64145;55.060;73.168;2023-01-13T15:56:26;3.00;2.00;0.00
73825;PMS5003;64145;55.060;73.168;2023-01-13T15:58:59;2.75;2.00;0.00
73825;PMS5003;64145;55.060;73.168;2023-01-13T16:01:24;1.00;1.00;0.00
73825;PMS5003;64145;55.060;73.168;2023-01-13T16:03:50;2.00;2.00;0.00
73825;PMS5003;64145;55.060;73.168;2023-01-13T16:06:20;0.00;0.00;0.00
73825;PMS5003;64145;55.060;73.168;2023-01-13T16:08:59;0.00;0.00;0.00
73825;PMS5003;64145;55.060;73.168;2023-01-13T16:11:24;2.00;2.00;0.00
73825;PMS5003;64145;55.060;73.168;2023-01-13T16:13:55;1.50;1.25;0.00
73825;PMS5003;64145;55.060;73.168;2023-01-13T16:16:30;0.25;0.25;0.00
73825;PMS5003;64145;55.060;73.168;2023-01-13T16:18:58;0.00;0.00;0.00
73825;PMS5003;64145;55.060;73.168;2023-01-13T16:21:24;0.00;0.00;0.00
73825;PMS5003;64145;55.060;73.168;2023-01-13T16:23:54;0.00;0.00;0.00
73825;PMS5003;64145;55.060;73.168;2023-01-13T16:26:24;0.00;0.00;0.00
73825;PMS5003;64145;55.060;73.168;2023-01-13T16:28:51;0.00;0.00;0.00
73825;PMS5003;64145;55.060;73.168;2023-01-13T16:31:18;0.00;0.00;0.00
73825;PMS5003;64145;55.060;73.168;2023-01-13T16:33:45;0.00;0.00;0.00
73825;PMS5003;64145;55.060;73.168;2023-01-13T16:36:15;0.00;0.00;0.00
73825;PMS5003;64145;55.060;73.168;2023-01-13T16:38:41;0.00;0.00;0.00
73825;PMS5003;64145;55.060;73.168;2023-01-13T16:41:07;0.00;0.00;0.00
73825;PMS5003;64145;55.060;73.168;2023-01-13T16:43:33;0.00;0.00;0.00
73825;PMS5003;64145;55.060;73.168;2023-01-13T16:45:58;0.00;0.00;0.00
73825;PMS5003;64145;55.060;73.168;2023-01-13T16:48:24;0.00;0.00;0.00
73825;PMS5003;64145;55.060;73.168;2023-01-13T16:50:49;0.00;0.00;0.00
73825;PMS5003;64145;55.060;73.168;2023-01-13T16:53:15;0.00;0.00;0.00
73825;PMS5003;64145;55.060;73.168;2023-01-13T16:55:41;0.00;0.00;0.00
73825;PMS5003;64145;55.060;73.168;2023-01-13T16:58:19;1.00;0.00;0.00
73825;PMS5003;64145;55.060;73.168;2023-01-13T17:00:51;0.00;0.00;0.00